Pagrindinis puslapis
METAR-TAF:

METAR-TAF

Oro uostai :

Milano Malpensa oro uostas

Milanas, Italija

platuma: 45-37N, ilguma: 008-44E, Aukštis: 234 m

Dabartinis oras

Ataskaita buvo paskelbta 25 minutes, ne 18:20 UTC
Vėjas 1 kt nuo kintamojo kryptimis
Temperatūra 18°C
Drėgmė 73%
Slėgis 1022 hPa
Matomumas 10 km arba daugiau
Su prošvaistėmis ne aukštis 5500 ft

METAR: LIMC 191820Z VRB01KT 9999 BKN055 18/13 Q1022 NOSIG

Laikas: 20:45 (18:45 UTC)

Prognozė

Ataskaita buvo paskelbta 1 valandą ir 45 minutes, ne 17:00 UTC
Prognozė galioja nuo 19 metu 18 UTC su 20 metu 24 UTC
Vėjas 5 kt nuo kintamojo kryptimis
Matomumas 10 km arba daugiau
Išsisklaidę debesys ne aukštis 5000 ft

TAF: LIMC 191700Z 1918/2024 VRB05KT 9999 SCT050

Orai ataskaitas ir orų prognozės (METAR, TAF).

turimą stotys yra geltonos ir raudonos taškus žemėlapyje.

Perkelti pele per norėdami pamatyti stoties vardą.

Tada spustelėkite, norėdami matyti oro stebėjimo ir prognozės.

Norėdami pakeisti žemėlapį: spustelėkite ant žalios mygtukų su juodo kryžiaus žemyn,; žalią mygtuką su brūkšneliu, jei norite nutolinti; arba žalių rodyklių gretimoms žemėlapius.


METAR-TAF: